Time;durP1;ratioP1;P1;durP2;ratioP2;P2;SDS_P1;SDS_P2;PMS_P1;PMS_P2;Temp;Humidity;BMP_temperature;BMP_pressure;BME280_temperature;BME280_humidity;BME280_pressure;Samples;Min_cycle;Max_cycle;Signal;HPM_P1;HPM_P2
2023/05/11 00:01:46;;;;;;;14.10;8.10;;;10.10;99.90;;;;;;5132918;27;20066;-58
2023/05/11 00:04:12;;;;;;;18.90;8.88;;;10.10;99.90;;;;;;5131701;27;20039;-59
2023/05/11 00:06:37;;;;;;;23.55;9.38;;;10.30;99.90;;;;;;5136948;27;20099;-58
2023/05/11 00:09:04;;;;;;;22.67;9.68;;;10.10;99.90;;;;;;5117655;27;20046;-58
2023/05/11 00:11:30;;;;;;;19.88;9.90;;;10.20;99.90;;;;;;5138878;27;20038;-58
2023/05/11 00:13:55;;;;;;;17.60;8.68;;;10.20;99.90;;;;;;5137236;27;20045;-58
2023/05/11 00:16:21;;;;;;;16.17;8.95;;;10.20;99.90;;;;;;5136651;27;20047;-58
2023/05/11 00:18:48;;;;;;;31.70;10.82;;;10.10;99.90;;;;;;5118416;27;20320;-59
2023/05/11 00:21:13;;;;;;;19.38;10.32;;;10.30;99.90;;;;;;5135774;27;20096;-59
2023/05/11 00:23:39;;;;;;;30.70;10.77;;;10.20;99.90;;;;;;5136084;27;20181;-58
2023/05/11 00:26:05;;;;;;;26.33;11.23;;;10.10;99.90;;;;;;5134362;27;20050;-58
2023/05/11 00:28:31;;;;;;;22.75;10.40;;;10.30;99.90;;;;;;5101892;27;20121;-58
2023/05/11 00:30:57;;;;;;;36.22;12.52;;;10.20;99.90;;;;;;5135714;27;20150;-58
2023/05/11 00:33:23;;;;;;;46.80;12.75;;;10.30;99.90;;;;;;5135179;27;20075;-58
2023/05/11 00:35:50;;;;;;;23.40;11.02;;;10.30;99.90;;;;;;5135338;27;20034;-57
2023/05/11 00:38:15;;;;;;;17.73;9.90;;;10.30;99.90;;;;;;5135478;27;20343;-58
2023/05/11 00:40:41;;;;;;;66.38;14.02;;;10.20;99.90;;;;;;5137211;27;20031;-58
2023/05/11 00:43:07;;;;;;;41.55;11.35;;;10.40;99.90;;;;;;5135124;27;20495;-58
2023/05/11 00:45:34;;;;;;;18.70;9.45;;;10.30;99.90;;;;;;5134728;27;20510;-58
2023/05/11 00:48:00;;;;;;;45.08;12.68;;;10.20;99.90;;;;;;5135853;27;20043;-58
2023/05/11 00:50:26;;;;;;;31.35;11.93;;;10.20;99.90;;;;;;5114300;27;20044;-58
2023/05/11 00:52:53;;;;;;;53.47;13.20;;;10.30;99.90;;;;;;5134376;27;20046;-58
2023/05/11 00:55:22;;;;;;;33.05;10.60;;;10.20;99.90;;;;;;5133415;27;20039;-58
2023/05/11 00:57:48;;;;;;;71.18;13.20;;;10.30;99.90;;;;;;5135889;27;20043;-59
2023/05/11 01:00:14;;;;;;;36.28;11.55;;;10.40;99.90;;;;;;5134672;27;20160;-58
2023/05/11 01:02:41;;;;;;;37.38;10.88;;;10.40;99.90;;;;;;5132656;27;20913;-58
2023/05/11 01:05:07;;;;;;;95.35;15.48;;;10.40;99.90;;;;;;5134549;27;20039;-57
2023/05/11 01:07:47;;;;;;;81.32;14.70;;;10.30;99.90;;;;;;5134049;27;20511;-58
2023/05/11 01:10:30;;;;;;;84.60;15.50;;;10.20;99.90;;;;;;5133954;27;20097;-56
2023/05/11 01:13:39;;;;;;;123.85;16.65;;;10.30;99.90;;;;;;5135177;27;20046;-58
2023/05/11 01:16:12;;;;;;;75.63;14.57;;;10.30;99.90;;;;;;5129272;27;20055;-58
2023/05/11 01:18:42;;;;;;;127.75;17.45;;;10.10;99.90;;;;;;5100922;27;20126;-57
2023/05/11 01:21:09;;;;;;;111.38;16.60;;;12.30;99.90;;;;;;5133069;27;20042;-58
2023/05/11 01:23:54;;;;;;;53.47;13.88;;;10.30;99.90;;;;;;5134132;27;20066;-58
2023/05/11 01:26:46;;;;;;;59.28;13.20;;;10.40;99.90;;;;;;5134105;27;20050;-58
2023/05/11 01:29:44;;;;;;;69.97;14.90;;;10.40;99.90;;;;;;5116842;27;20035;-58
2023/05/11 01:32:23;;;;;;;59.72;15.20;;;10.30;99.90;;;;;;5133132;27;20043;-58
2023/05/11 01:34:57;;;;;;;76.80;15.60;;;10.30;99.90;;;;;;5135073;27;20464;-58
2023/05/11 01:37:24;;;;;;;71.25;15.20;;;10.30;99.90;;;;;;5135963;27;20132;-58
2023/05/11 01:39:57;;;;;;;57.72;15.02;;;10.20;99.90;;;;;;5135433;27;20030;-58
2023/05/11 01:42:31;;;;;;;75.15;15.27;;;10.30;99.90;;;;;;5136060;27;20140;-58
2023/05/11 01:44:59;;;;;;;28.95;12.05;;;10.20;99.90;;;;;;5133578;27;20490;-57
2023/05/11 01:47:28;;;;;;;39.45;12.52;;;10.20;99.90;;;;;;5135564;27;20572;-58
2023/05/11 01:49:56;;;;;;;66.72;13.02;;;10.30;99.90;;;;;;5135007;27;20079;-58
2023/05/11 01:52:24;;;;;;;93.45;15.23;;;10.20;99.90;;;;;;5133034;27;20061;-58
2023/05/11 01:54:53;;;;;;;72.95;13.82;;;10.20;99.90;;;;;;5133954;27;20043;-57
2023/05/11 01:57:21;;;;;;;59.40;12.45;;;10.50;99.90;;;;;;5133503;27;20050;-58
2023/05/11 01:59:49;;;;;;;147.95;15.23;;;10.30;99.90;;;;;;5132644;27;20715;-57
2023/05/11 02:02:16;;;;;;;177.65;16.17;;;10.30;99.90;;;;;;5132670;27;20038;-57
2023/05/11 02:04:43;;;;;;;336.10;20.08;;;10.20;99.90;;;;;;5134487;27;20308;-57
2023/05/11 02:07:12;;;;;;;93.78;13.30;;;10.10;99.90;;;;;;5133389;27;20432;-58
2023/05/11 02:09:40;;;;;;;94.90;14.93;;;10.00;99.90;;;;;;5133717;27;20099;-58
2023/05/11 02:12:08;;;;;;;83.35;14.02;;;10.00;99.90;;;;;;5134736;27;20510;-58
2023/05/11 02:14:35;;;;;;;209.10;17.80;;;10.00;99.90;;;;;;5133346;27;20043;-57
2023/05/11 02:17:03;;;;;;;91.05;12.85;;;9.90;99.90;;;;;;5132937;27;20046;-57
2023/05/11 02:19:30;;;;;;;51.22;12.00;;;10.10;99.90;;;;;;5132214;27;20099;-58
2023/05/11 02:21:58;;;;;;;51.40;12.38;;;10.00;99.90;;;;;;5134202;27;20049;-58
2023/05/11 02:24:27;;;;;;;38.63;12.63;;;10.10;99.90;;;;;;5132896;27;20426;-58
2023/05/11 02:26:53;;;;;;;44.50;13.43;;;10.10;99.90;;;;;;5132592;27;20491;-58
2023/05/11 02:29:19;;;;;;;149.75;16.48;;;9.90;99.90;;;;;;5133280;27;20267;-58
2023/05/11 02:31:47;;;;;;;53.67;11.80;;;10.40;99.90;;;;;;5132529;27;20489;-57
2023/05/11 02:34:23;;;;;;;215.05;16.25;;;10.10;99.90;;;;;;5131847;27;20259;-58
2023/05/11 02:36:53;;;;;;;183.82;14.48;;;10.10;99.90;;;;;;5101710;27;20035;-57
2023/05/11 02:39:20;;;;;;;143.93;13.88;;;10.10;99.90;;;;;;5132759;27;20388;-57
2023/05/11 02:41:53;;;;;;;161.75;15.52;;;10.10;99.90;;;;;;5115361;27;20077;-57
2023/05/11 02:44:21;;;;;;;153.05;14.43;;;10.00;99.90;;;;;;5133418;27;20035;-58
2023/05/11 02:46:48;;;;;;;113.10;12.73;;;10.20;99.90;;;;;;5133726;27;20039;-57
2023/05/11 02:49:17;;;;;;;153.27;13.35;;;10.10;99.90;;;;;;5133038;27;20046;-58
2023/05/11 02:51:44;;;;;;;73.18;11.32;;;10.10;99.90;;;;;;5133373;27;20549;-59
2023/05/11 02:54:12;;;;;;;210.52;16.58;;;10.00;99.90;;;;;;5132604;27;20126;-57
2023/05/11 02:56:38;;;;;;;136.32;13.63;;;9.80;99.90;;;;;;5132026;27;20086;-57
2023/05/11 02:59:04;;;;;;;155.68;13.95;;;10.00;99.90;;;;;;5132586;27;20788;-57
2023/05/11 03:01:29;;;;;;;163.98;15.07;;;10.00;99.90;;;;;;5133070;27;20513;-58
2023/05/11 03:03:55;;;;;;;130.85;12.90;;;10.00;99.90;;;;;;5132568;27;20046;-57
2023/05/11 03:06:21;;;;;;;200.43;13.90;;;10.00;99.90;;;;;;5131966;27;20035;-57
2023/05/11 03:08:47;;;;;;;165.43;13.40;;;9.80;99.90;;;;;;5133666;27;20061;-57
2023/05/11 03:11:15;;;;;;;183.07;14.07;;;10.00;99.90;;;;;;5116942;27;20057;-58
2023/05/11 03:13:44;;;;;;;202.75;14.48;;;9.80;99.90;;;;;;5133974;27;20043;-58
2023/05/11 03:16:13;;;;;;;221.43;15.82;;;9.80;99.90;;;;;;5132284;27;20031;-58
2023/05/11 03:18:39;;;;;;;217.60;15.93;;;9.80;99.90;;;;;;5133627;27;20062;-58
2023/05/11 03:21:06;;;;;;;214.55;14.68;;;9.90;99.90;;;;;;5132678;27;20555;-57
2023/05/11 03:23:34;;;;;;;225.23;14.80;;;9.70;99.90;;;;;;5114402;27;20068;-57
2023/05/11 03:26:01;;;;;;;138.15;12.65;;;9.90;99.90;;;;;;5130904;27;20030;-58
2023/05/11 03:28:28;;;;;;;236.10;14.63;;;10.00;99.90;;;;;;5132544;27;20499;-57
2023/05/11 03:30:54;;;;;;;182.90;11.82;;;9.90;99.90;;;;;;5131313;27;20043;-58
2023/05/11 03:33:20;;;;;;;178.07;12.65;;;10.10;99.90;;;;;;5133144;27;20053;-57
2023/05/11 03:35:49;;;;;;;111.20;10.45;;;9.80;99.90;;;;;;5131773;27;20065;-57
2023/05/11 03:38:15;;;;;;;120.45;10.63;;;9.90;99.90;;;;;;5131472;27;20042;-57
2023/05/11 03:40:42;;;;;;;117.82;10.70;;;9.80;99.90;;;;;;5111997;27;20086;-57
2023/05/11 03:43:13;;;;;;;134.38;11.65;;;9.90;99.90;;;;;;5132830;27;20046;-58
2023/05/11 03:45:41;;;;;;;102.45;10.32;;;9.90;99.90;;;;;;5113734;27;20107;-57
2023/05/11 03:48:08;;;;;;;107.20;10.60;;;9.90;99.90;;;;;;5114568;27;20099;-58
2023/05/11 03:50:36;;;;;;;132.63;11.60;;;10.00;99.90;;;;;;5129178;27;20159;-57
2023/05/11 03:53:03;;;;;;;147.50;10.32;;;10.00;99.90;;;;;;5130668;27;20069;-57
2023/05/11 03:55:29;;;;;;;122.10;9.45;;;9.80;99.90;;;;;;5131781;27;20046;-58
2023/05/11 03:57:54;;;;;;;122.40;10.07;;;9.90;99.90;;;;;;5131134;27;20050;-57
2023/05/11 04:00:20;;;;;;;94.32;9.95;;;9.90;99.90;;;;;;5111376;27;20043;-57
2023/05/11 04:02:46;;;;;;;83.88;8.13;;;9.80;99.90;;;;;;5132276;27;20038;-57
2023/05/11 04:05:12;;;;;;;100.22;9.05;;;9.80;99.90;;;;;;5132059;27;20046;-58
2023/05/11 04:07:38;;;;;;;115.20;9.85;;;9.90;99.90;;;;;;5111618;27;20042;-58
2023/05/11 04:10:05;;;;;;;51.60;6.97;;;9.70;99.90;;;;;;5131411;27;20043;-57
2023/05/11 04:12:31;;;;;;;107.18;9.63;;;9.90;99.90;;;;;;5133229;27;20040;-57
2023/05/11 04:14:57;;;;;;;160.30;10.95;;;9.70;99.90;;;;;;5132235;27;20039;-58
2023/05/11 04:17:22;;;;;;;115.57;10.15;;;9.70;99.90;;;;;;5113945;27;20041;-57
2023/05/11 04:19:48;;;;;;;107.15;9.23;;;9.80;99.90;;;;;;5129625;27;20050;-57
2023/05/11 04:22:15;;;;;;;70.25;9.45;;;9.80;99.90;;;;;;5133896;27;20053;-58
2023/05/11 04:24:41;;;;;;;118.05;10.63;;;10.00;99.90;;;;;;5132984;27;20038;-58
2023/05/11 04:27:06;;;;;;;62.85;9.43;;;10.00;99.90;;;;;;5097802;27;20061;-57
2023/05/11 04:29:32;;;;;;;44.15;8.10;;;9.80;99.90;;;;;;5131692;27;20043;-57
2023/05/11 04:31:58;;;;;;;113.65;10.82;;;9.80;99.90;;;;;;5133828;27;20161;-58
2023/05/11 04:34:24;;;;;;;75.03;8.85;;;9.70;99.90;;;;;;5131492;27;20039;-57
2023/05/11 04:36:50;;;;;;;92.82;9.60;;;9.80;99.90;;;;;;5131022;27;20039;-57
2023/05/11 04:39:16;;;;;;;103.63;9.45;;;9.90;99.90;;;;;;5131280;27;20078;-57
2023/05/11 04:41:43;;;;;;;102.80;10.20;;;9.90;99.90;;;;;;5133623;27;20139;-57
2023/05/11 04:44:09;;;;;;;107.03;10.63;;;10.00;99.90;;;;;;5132508;27;20096;-58
2023/05/11 04:46:37;;;;;;;99.57;10.73;;;9.90;99.90;;;;;;5131358;27;20465;-57
2023/05/11 04:49:04;;;;;;;94.90;9.50;;;10.00;99.90;;;;;;5129899;27;20051;-59
2023/05/11 04:51:30;;;;;;;69.38;8.20;;;9.80;99.90;;;;;;5097874;27;20050;-57
2023/05/11 04:53:56;;;;;;;95.60;10.50;;;10.00;99.90;;;;;;5135078;27;20099;-58
2023/05/11 04:56:22;;;;;;;94.20;10.27;;;9.70;99.90;;;;;;5133548;27;20038;-57
2023/05/11 04:58:47;;;;;;;76.10;9.50;;;10.00;99.90;;;;;;5133312;27;20057;-58
2023/05/11 05:01:13;;;;;;;111.20;11.90;;;10.00;99.90;;;;;;5115591;27;20469;-57
2023/05/11 05:03:39;;;;;;;48.97;8.10;;;10.00;99.90;;;;;;5099517;27;20125;-57
2023/05/11 05:06:05;;;;;;;163.18;12.75;;;9.90;99.90;;;;;;5134606;27;20050;-57
2023/05/11 05:08:31;;;;;;;121.03;13.18;;;9.90;99.90;;;;;;5133328;27;20035;-59
2023/05/11 05:10:56;;;;;;;165.50;13.90;;;10.00;99.90;;;;;;5134220;27;20050;-57
2023/05/11 05:13:22;;;;;;;93.40;11.93;;;10.10;99.90;;;;;;5137239;27;20107;-57
2023/05/11 05:15:48;;;;;;;68.72;11.57;;;9.90;99.90;;;;;;5133319;27;20125;-57
2023/05/11 05:18:14;;;;;;;123.32;16.20;;;9.50;99.90;;;;;;5114248;27;20893;-57
2023/05/11 05:20:39;;;;;;;65.90;13.48;;;10.10;99.90;;;;;;5115367;27;20380;-60
2023/05/11 05:23:05;;;;;;;78.43;14.35;;;10.10;99.90;;;;;;5133663;27;20359;-57
2023/05/11 05:25:31;;;;;;;67.07;15.27;;;10.10;99.90;;;;;;5133084;27;20745;-57
2023/05/11 05:27:57;;;;;;;69.80;15.73;;;10.30;99.90;;;;;;5133524;27;21552;-57
2023/05/11 05:30:22;;;;;;;94.85;16.60;;;10.10;99.90;;;;;;5132946;27;20129;-58
2023/05/11 05:32:48;;;;;;;106.25;16.67;;;10.40;99.90;;;;;;5133572;27;20148;-57
2023/05/11 05:35:14;;;;;;;67.18;15.75;;;10.20;99.90;;;;;;5133175;27;20107;-57
2023/05/11 05:37:40;;;;;;;102.03;18.00;;;10.20;99.90;;;;;;5133109;27;20122;-58
2023/05/11 05:40:06;;;;;;;105.40;17.45;;;10.30;99.90;;;;;;5133426;27;20432;-58
2023/05/11 05:42:32;;;;;;;86.35;17.48;;;10.30;99.90;;;;;;5134821;27;20046;-57
2023/05/11 05:44:58;;;;;;;70.75;16.65;;;10.50;99.90;;;;;;5115278;27;20034;-57
2023/05/11 05:47:23;;;;;;;59.03;16.15;;;10.50;99.90;;;;;;5133171;27;20078;-57
2023/05/11 05:49:49;;;;;;;136.10;20.60;;;10.40;99.90;;;;;;5133606;27;20070;-58
2023/05/11 05:52:15;;;;;;;99.32;18.98;;;10.50;99.90;;;;;;5133261;27;20045;-57
2023/05/11 05:54:41;;;;;;;122.20;21.63;;;10.60;99.90;;;;;;5134805;27;20117;-58
2023/05/11 05:57:06;;;;;;;98.72;19.67;;;10.60;99.90;;;;;;5091777;27;20381;-57
2023/05/11 05:59:32;;;;;;;56.13;16.95;;;10.70;99.90;;;;;;5093282;28;20039;-58
2023/05/11 06:01:58;;;;;;;88.43;18.30;;;11.20;99.90;;;;;;5091891;28;20124;-57
2023/05/11 06:04:24;;;;;;;80.75;19.55;;;10.70;99.90;;;;;;5094807;28;20041;-57
2023/05/11 06:06:50;;;;;;;97.18;20.02;;;10.80;99.90;;;;;;5091593;28;20043;-57
2023/05/11 06:09:15;;;;;;;124.47;21.20;;;10.80;99.90;;;;;;5093297;28;20104;-57
2023/05/11 06:11:41;;;;;;;122.97;22.95;;;10.90;99.90;;;;;;5093107;28;20044;-57
2023/05/11 06:14:07;;;;;;;118.53;21.42;;;10.70;99.90;;;;;;5095190;28;20035;-57
2023/05/11 06:16:32;;;;;;;69.60;17.42;;;11.00;99.90;;;;;;5092961;28;20367;-57
2023/05/11 06:18:58;;;;;;;107.50;21.45;;;10.90;99.90;;;;;;5091541;28;20049;-56
2023/05/11 06:21:24;;;;;;;99.65;21.95;;;10.80;99.90;;;;;;5091260;28;20052;-57
2023/05/11 06:23:50;;;;;;;57.13;18.25;;;10.90;99.90;;;;;;5092592;28;20186;-57
2023/05/11 06:26:15;;;;;;;57.08;18.85;;;11.00;99.90;;;;;;5091121;28;20043;-57
2023/05/11 06:28:41;;;;;;;63.10;19.52;;;11.00;99.90;;;;;;5092754;28;20039;-60
2023/05/11 06:31:07;;;;;;;44.88;16.10;;;11.00;99.90;;;;;;5092370;28;20036;-57
2023/05/11 06:33:33;;;;;;;53.15;18.00;;;11.10;99.90;;;;;;5092879;28;20467;-57
2023/05/11 06:36:03;;;;;;;66.85;20.63;;;10.90;99.90;;;;;;5090407;28;20161;-57
2023/05/11 06:38:29;;;;;;;50.47;18.08;;;11.00;99.90;;;;;;5090559;28;20126;-57
2023/05/11 06:40:55;;;;;;;74.65;20.40;;;11.20;99.90;;;;;;5091600;28;20071;-57
2023/05/11 06:43:22;;;;;;;61.78;20.23;;;10.90;99.90;;;;;;5093829;28;20055;-57
2023/05/11 06:45:48;;;;;;;59.65;20.08;;;11.00;99.90;;;;;;5092881;28;20070;-57
2023/05/11 06:48:14;;;;;;;53.17;18.08;;;11.30;99.90;;;;;;5106333;27;20044;-57
2023/05/11 06:50:40;;;;;;;54.83;18.73;;;11.10;99.90;;;;;;5092263;28;20120;-57
2023/05/11 06:53:06;;;;;;;46.78;17.40;;;11.10;99.90;;;;;;5092842;28;20039;-58
2023/05/11 06:55:32;;;;;;;58.45;18.98;;;11.00;99.90;;;;;;5099212;27;20053;-57
2023/05/11 06:57:58;;;;;;;45.40;17.42;;;11.30;99.90;;;;;;5132420;27;20765;-57
2023/05/11 07:00:24;;;;;;;41.55;15.77;;;11.10;99.90;;;;;;5132450;27;20050;-57
2023/05/11 07:02:50;;;;;;;40.17;16.77;;;13.30;99.90;;;;;;5133700;27;20053;-58
2023/05/11 07:05:15;;;;;;;41.22;16.70;;;11.30;99.90;;;;;;5132210;27;20043;-58
2023/05/11 07:07:41;;;;;;;40.22;17.45;;;11.40;99.90;;;;;;5132823;27;20096;-57
2023/05/11 07:10:07;;;;;;;42.47;17.20;;;11.40;99.90;;;;;;5133232;27;20042;-58
2023/05/11 07:12:33;;;;;;;35.67;15.95;;;11.30;99.90;;;;;;5133274;27;20617;-58
2023/05/11 07:14:59;;;;;;;37.28;15.90;;;11.30;99.90;;;;;;5133010;27;20042;-56
2023/05/11 07:17:25;;;;;;;34.88;15.48;;;11.30;99.90;;;;;;5133987;27;20486;-58
2023/05/11 07:19:51;;;;;;;29.08;13.88;;;11.40;99.90;;;;;;5131465;27;20038;-58
2023/05/11 07:22:17;;;;;;;31.33;14.18;;;11.60;99.90;;;;;;5132862;27;20129;-58
2023/05/11 07:24:43;;;;;;;29.75;14.35;;;11.40;99.90;;;;;;5131968;27;20057;-58
2023/05/11 07:27:10;;;;;;;28.98;13.48;;;11.50;99.90;;;;;;5134045;27;20043;-58
2023/05/11 07:29:35;;;;;;;30.17;13.60;;;11.70;99.90;;;;;;5114087;27;20959;-57
2023/05/11 07:32:01;;;;;;;21.88;11.32;;;11.40;99.90;;;;;;5133709;27;20030;-58
2023/05/11 07:34:27;;;;;;;21.65;11.07;;;11.70;99.90;;;;;;5133105;27;20133;-58
2023/05/11 07:36:53;;;;;;;25.88;12.45;;;11.50;99.90;;;;;;5132657;27;20074;-58
2023/05/11 07:39:18;;;;;;;19.80;11.35;;;11.80;99.90;;;;;;5131171;27;20038;-58
2023/05/11 07:41:44;;;;;;;18.85;11.20;;;12.00;99.90;;;;;;5132728;27;20133;-57
2023/05/11 07:44:10;;;;;;;20.63;11.95;;;11.80;99.90;;;;;;5134224;27;20498;-62
2023/05/11 07:46:36;;;;;;;24.55;13.68;;;11.80;99.90;;;;;;5133230;27;20581;-57
2023/05/11 07:49:02;;;;;;;22.63;13.05;;;12.00;99.90;;;;;;5131671;27;20063;-58
2023/05/11 07:51:27;;;;;;;23.00;13.95;;;12.00;99.90;;;;;;5131045;27;20090;-57
2023/05/11 07:53:53;;;;;;;21.77;12.93;;;12.00;99.90;;;;;;5132834;27;20403;-58
2023/05/11 07:56:19;;;;;;;16.63;10.43;;;12.00;99.90;;;;;;5131455;27;20141;-58
2023/05/11 07:58:44;;;;;;;17.83;11.30;;;12.00;99.90;;;;;;5131478;27;20070;-58
2023/05/11 08:01:10;;;;;;;16.45;10.50;;;12.10;99.90;;;;;;5111991;27;20078;-57
2023/05/11 08:03:36;;;;;;;19.83;11.02;;;11.90;99.90;;;;;;5133790;27;20038;-58
2023/05/11 08:06:02;;;;;;;15.10;10.15;;;12.20;99.90;;;;;;5131351;27;20043;-58
2023/05/11 08:08:29;;;;;;;13.98;9.98;;;12.20;99.90;;;;;;5131306;27;20043;-57
2023/05/11 08:10:55;;;;;;;14.80;10.13;;;12.30;99.90;;;;;;5114036;27;20074;-57
2023/05/11 08:13:21;;;;;;;16.83;10.18;;;12.30;99.90;;;;;;5134108;27;20038;-58
2023/05/11 08:15:47;;;;;;;15.63;10.63;;;12.20;99.90;;;;;;5131232;27;20122;-58
2023/05/11 08:18:13;;;;;;;15.90;10.48;;;12.50;99.90;;;;;;5130512;27;20043;-57
2023/05/11 08:20:41;;;;;;;15.35;10.07;;;12.50;99.90;;;;;;5131998;27;20620;-57
2023/05/11 08:23:08;;;;;;;16.27;9.35;;;12.40;99.90;;;;;;5114638;27;20047;-58
2023/05/11 08:25:33;;;;;;;13.38;8.90;;;12.50;99.90;;;;;;5134365;27;20218;-58
2023/05/11 08:28:00;;;;;;;14.45;8.45;;;12.60;99.90;;;;;;5136238;27;20034;-57
2023/05/11 08:30:26;;;;;;;15.00;9.07;;;12.60;99.90;;;;;;5137499;27;20046;-57
2023/05/11 08:32:52;;;;;;;12.80;8.45;;;12.70;99.90;;;;;;5136116;27;20031;-57
2023/05/11 08:35:18;;;;;;;13.73;8.73;;;12.60;99.90;;;;;;5137678;27;20100;-57
2023/05/11 08:37:44;;;;;;;15.98;9.93;;;12.70;99.90;;;;;;5134765;27;20553;-58
2023/05/11 08:40:13;;;;;;;14.07;9.00;;;12.90;99.90;;;;;;5136469;27;20041;-57
2023/05/11 08:42:42;;;;;;;14.30;9.20;;;12.60;99.90;;;;;;5136379;27;20773;-57
2023/05/11 08:45:10;;;;;;;15.32;9.48;;;12.80;99.90;;;;;;5136705;27;20034;-57
2023/05/11 08:47:36;;;;;;;14.70;9.00;;;12.60;99.90;;;;;;5116804;27;20448;-58
2023/05/11 08:50:02;;;;;;;13.00;8.85;;;12.60;99.90;;;;;;5136197;27;20065;-57
2023/05/11 08:52:29;;;;;;;14.93;9.60;;;12.80;99.90;;;;;;5135322;27;20035;-57
2023/05/11 08:54:55;;;;;;;15.65;9.63;;;13.00;99.90;;;;;;5135591;27;20535;-57
2023/05/11 08:57:21;;;;;;;14.70;9.98;;;12.80;99.90;;;;;;5135053;27;20058;-58
2023/05/11 08:59:48;;;;;;;14.55;9.48;;;12.80;99.90;;;;;;5136198;27;20381;-57
2023/05/11 09:02:16;;;;;;;15.25;10.52;;;12.80;99.90;;;;;;5116104;27;20053;-57
2023/05/11 09:04:43;;;;;;;15.45;10.27;;;13.00;99.90;;;;;;5135600;27;20043;-58
2023/05/11 09:07:15;;;;;;;15.93;10.23;;;12.90;99.90;;;;;;5135466;27;20035;-57
2023/05/11 09:09:41;;;;;;;17.60;10.00;;;12.80;99.90;;;;;;5116158;27;20023;-58
2023/05/11 09:12:11;;;;;;;16.83;10.52;;;12.90;99.90;;;;;;5117249;27;20049;-58
2023/05/11 09:14:36;;;;;;;15.80;10.68;;;13.00;99.90;;;;;;5135708;27;20074;-57
2023/05/11 09:17:03;;;;;;;18.33;11.13;;;13.00;99.90;;;;;;5135336;27;20130;-57
2023/05/11 09:19:29;;;;;;;17.73;11.35;;;13.10;99.90;;;;;;5133437;27;20049;-57
2023/05/11 09:21:54;;;;;;;16.63;10.85;;;13.10;99.90;;;;;;5110835;27;20039;-57
2023/05/11 09:24:21;;;;;;;18.33;11.40;;;13.10;99.90;;;;;;5134380;27;20448;-57
2023/05/11 09:26:47;;;;;;;18.50;11.70;;;13.20;99.90;;;;;;5134428;27;20174;-58
2023/05/11 09:29:14;;;;;;;14.57;11.15;;;13.50;99.90;;;;;;5133637;27;20055;-58
2023/05/11 09:31:45;;;;;;;16.40;11.07;;;13.50;99.90;;;;;;5134460;27;20045;-58
2023/05/11 09:34:19;;;;;;;19.52;11.75;;;13.70;99.90;;;;;;5135050;27;20180;-57
2023/05/11 09:36:49;;;;;;;16.02;10.38;;;13.80;99.90;;;;;;5115578;27;20046;-58
2023/05/11 09:39:18;;;;;;;16.55;10.85;;;14.30;99.90;;;;;;5099086;27;20875;-58
2023/05/11 09:41:44;;;;;;;15.55;11.45;;;14.10;99.90;;;;;;5116375;27;20221;-57
2023/05/11 09:44:14;;;;;;;17.27;12.13;;;14.10;99.90;;;;;;5135036;27;20430;-58
2023/05/11 09:46:44;;;;;;;20.35;12.07;;;14.10;99.90;;;;;;5135639;27;20047;-58
2023/05/11 09:49:11;;;;;;;16.65;11.40;;;14.00;99.90;;;;;;5135527;27;20043;-57
2023/05/11 09:51:39;;;;;;;17.38;11.35;;;13.80;99.90;;;;;;5116551;27;20049;-58
2023/05/11 09:54:17;;;;;;;15.65;11.75;;;13.80;99.90;;;;;;5134618;27;20125;-58
2023/05/11 09:56:55;;;;;;;16.55;11.50;;;13.70;99.90;;;;;;5135131;27;20051;-59
2023/05/11 09:59:40;;;;;;;15.48;11.93;;;13.70;99.90;;;;;;5135052;27;20250;-57
2023/05/11 10:02:26;;;;;;;16.55;11.27;;;13.70;99.90;;;;;;5117112;27;20587;-58
2023/05/11 10:04:53;;;;;;;18.75;12.13;;;13.70;99.90;;;;;;5133518;27;20034;-58
2023/05/11 10:07:33;;;;;;;17.98;12.38;;;13.50;99.90;;;;;;5136570;27;20043;-57
2023/05/11 10:10:04;;;;;;;16.48;11.60;;;13.60;99.90;;;;;;5134901;27;20050;-58
2023/05/11 10:12:32;;;;;;;16.13;11.23;;;13.60;99.90;;;;;;5136029;27;20045;-58
2023/05/11 10:15:01;;;;;;;15.63;11.82;;;13.70;99.90;;;;;;5116573;27;20038;-56
2023/05/11 10:17:29;;;;;;;15.98;11.85;;;13.80;99.90;;;;;;5134228;27;20034;-57
2023/05/11 10:19:55;;;;;;;14.80;10.30;;;13.70;99.90;;;;;;5133771;27;20412;-58
2023/05/11 10:22:23;;;;;;;16.63;10.73;;;13.90;99.90;;;;;;5135894;27;20509;-58
2023/05/11 10:24:53;;;;;;;15.60;11.52;;;13.80;99.90;;;;;;5133954;27;20042;-57
2023/05/11 10:27:20;;;;;;;16.38;11.82;;;14.00;99.90;;;;;;5134163;27;20034;-57
2023/05/11 10:29:47;;;;;;;17.20;12.20;;;14.10;99.90;;;;;;5133307;27;20031;-58
2023/05/11 10:32:15;;;;;;;16.40;11.50;;;14.20;99.90;;;;;;5134193;27;20183;-57
2023/05/11 10:34:43;;;;;;;14.38;11.05;;;14.30;99.90;;;;;;5132879;27;20111;-57
2023/05/11 10:37:09;;;;;;;17.38;11.38;;;14.50;99.90;;;;;;5132781;27;20661;-58
2023/05/11 10:39:42;;;;;;;14.55;10.52;;;14.80;99.90;;;;;;5132925;27;20050;-58
2023/05/11 10:42:27;;;;;;;11.13;9.05;;;14.80;99.90;;;;;;5133653;27;20043;-58
2023/05/11 10:45:20;;;;;;;12.52;8.60;;;15.80;99.90;;;;;;5134519;27;20093;-58
2023/05/11 10:48:05;;;;;;;12.48;8.70;;;15.20;99.90;;;;;;5133778;27;20042;-57
2023/05/11 10:50:36;;;;;;;11.63;8.63;;;15.40;99.90;;;;;;5131732;27;20039;-58
2023/05/11 10:53:21;;;;;;;11.43;8.52;;;15.30;99.90;;;;;;5133269;27;20411;-58
2023/05/11 10:55:58;;;;;;;12.00;7.90;;;15.80;99.90;;;;;;5132670;27;20126;-58
2023/05/11 10:58:48;;;;;;;10.90;8.15;;;15.60;99.90;;;;;;5132294;27;20056;-58
2023/05/11 11:01:17;;;;;;;12.02;8.75;;;15.50;99.90;;;;;;5132904;27;20039;-57
2023/05/11 11:03:56;;;;;;;12.52;8.88;;;15.60;99.90;;;;;;5131001;27;20078;-57
2023/05/11 11:06:23;;;;;;;14.40;8.90;;;15.60;99.90;;;;;;5132621;27;20046;-58
2023/05/11 11:09:00;;;;;;;12.48;7.80;;;15.50;99.90;;;;;;5134137;27;20083;-58
2023/05/11 11:11:30;;;;;;;9.43;6.32;;;15.40;99.90;;;;;;5132100;27;20058;-57
2023/05/11 11:13:57;;;;;;;12.18;8.25;;;15.50;99.90;;;;;;5134939;27;20043;-58
2023/05/11 11:16:24;;;;;;;12.05;8.90;;;15.20;99.90;;;;;;5133154;27;20525;-58
2023/05/11 11:18:50;;;;;;;12.73;9.18;;;15.50;99.90;;;;;;5133523;27;20521;-58
2023/05/11 11:21:42;;;;;;;11.35;8.32;;;15.30;99.90;;;;;;5133263;27;20058;-58
2023/05/11 11:24:28;;;;;;;;;;;15.40;99.90;;;;;;5133055;27;20053;-57
2023/05/11 11:26:54;;;;;;;11.00;7.90;;;15.60;99.90;;;;;;5132885;27;20086;-58
2023/05/11 11:29:20;;;;;;;10.98;7.75;;;15.50;99.90;;;;;;5133233;27;20060;-57
2023/05/11 11:31:46;;;;;;;8.98;6.75;;;15.40;99.90;;;;;;5132705;27;20035;-58
2023/05/11 11:34:26;;;;;;;8.27;6.57;;;15.80;99.90;;;;;;5130479;27;20631;-57
2023/05/11 11:36:57;;;;;;;10.52;6.80;;;15.80;99.90;;;;;;5133440;27;20171;-58
2023/05/11 11:39:44;;;;;;;9.32;6.97;;;17.90;99.90;;;;;;5133309;27;20146;-57
2023/05/11 11:42:14;;;;;;;9.25;5.85;;;16.00;99.90;;;;;;5132735;27;20075;-57
2023/05/11 11:44:43;;;;;;;7.07;5.30;;;16.10;99.90;;;;;;5133592;27;20038;-58
2023/05/11 11:47:13;;;;;;;10.25;5.85;;;16.10;99.90;;;;;;5131413;27;20110;-57
2023/05/11 11:49:42;;;;;;;8.57;5.18;;;16.00;99.90;;;;;;5112438;27;20391;-58
2023/05/11 11:52:12;;;;;;;7.45;5.63;;;16.20;99.90;;;;;;5132864;27;20035;-58
2023/05/11 11:54:43;;;;;;;6.35;4.80;;;16.40;99.90;;;;;;5131171;27;20070;-58
2023/05/11 11:57:32;;;;;;;6.67;4.93;;;16.30;99.90;;;;;;5131717;27;20430;-58
2023/05/11 11:59:59;;;;;;;7.97;4.78;;;16.40;99.90;;;;;;5118629;27;20085;-58
2023/05/11 12:02:26;;;;;;;8.95;4.90;;;16.30;99.90;;;;;;5131667;27;20039;-57
2023/05/11 12:05:17;;;;;;;6.38;4.70;;;16.50;99.90;;;;;;5131498;27;20042;-58
2023/05/11 12:07:48;;;;;;;6.30;4.13;;;16.30;99.90;;;;;;5131982;27;20050;-57
2023/05/11 12:10:16;;;;;;;6.00;4.40;;;16.30;99.90;;;;;;5130884;27;20067;-58
2023/05/11 12:12:53;;;;;;;6.55;4.10;;;16.40;99.90;;;;;;5112787;27;20038;-58
2023/05/11 12:15:26;;;;;;;6.35;4.30;;;16.20;99.90;;;;;;5132316;27;20074;-57
2023/05/11 12:17:52;;;;;;;5.38;3.70;;;16.40;99.90;;;;;;5130421;27;20046;-58
2023/05/11 12:20:19;;;;;;;5.80;4.00;;;16.20;99.90;;;;;;5130955;27;20058;-58
2023/05/11 12:22:47;;;;;;;6.00;4.20;;;16.30;99.90;;;;;;5131622;27;20065;-58
2023/05/11 12:25:16;;;;;;;7.30;4.25;;;16.70;99.90;;;;;;5130948;27;20047;-58
2023/05/11 12:28:00;;;;;;;8.07;4.88;;;16.60;99.90;;;;;;5130636;27;20511;-57
2023/05/11 12:30:30;;;;;;;5.38;3.88;;;16.60;99.90;;;;;;5113017;27;20106;-59
2023/05/11 12:32:56;;;;;;;6.75;4.68;;;16.60;99.90;;;;;;5131846;27;20047;-58
2023/05/11 12:35:24;;;;;;;8.27;4.15;;;16.60;99.90;;;;;;5129949;27;20046;-57
2023/05/11 12:37:50;;;;;;;5.43;4.07;;;16.70;99.90;;;;;;5132409;27;20476;-58